Time;durP1;ratioP1;P1;durP2;ratioP2;P2;SDS_P1;SDS_P2;PMS_P1;PMS_P2;Temp;Humidity;BMP_temperature;BMP_pressure;BME280_temperature;BME280_humidity;BME280_pressure;Samples;Min_cycle;Max_cycle;Signal;HPM_P1;HPM_P2
2021/10/17 00:00:25;;;;;;;8.52;2.28;;;2.40;99.90;;;;;;5037756;28;20028;-68
2021/10/17 00:02:53;;;;;;;3.67;1.85;;;2.40;99.90;;;;;;5037732;28;20410;-68
2021/10/17 00:05:26;;;;;;;5.93;1.70;;;2.40;99.90;;;;;;5037416;28;20037;-68
2021/10/17 00:07:54;;;;;;;8.30;2.00;;;2.50;99.90;;;;;;5038624;28;20349;-68
2021/10/17 00:10:25;;;;;;;5.55;1.92;;;2.50;99.90;;;;;;5037568;28;20025;-68
2021/10/17 00:12:58;;;;;;;5.95;2.08;;;2.60;99.90;;;;;;5037512;28;20025;-68
2021/10/17 00:15:30;;;;;;;5.45;2.35;;;2.70;99.90;;;;;;5036375;28;20030;-68
2021/10/17 00:17:59;;;;;;;6.93;2.38;;;2.70;99.90;;;;;;5037627;28;20045;-68
2021/10/17 00:20:27;;;;;;;11.98;2.63;;;2.70;99.90;;;;;;5037469;28;20048;-68
2021/10/17 00:22:55;;;;;;;5.97;2.92;;;2.80;99.90;;;;;;5038308;28;20017;-68
2021/10/17 00:25:23;;;;;;;5.10;1.88;;;2.80;99.90;;;;;;5037118;28;20083;-68
2021/10/17 00:27:51;;;;;;;6.13;2.20;;;2.80;99.90;;;;;;5038343;28;20100;-68
2021/10/17 00:30:19;;;;;;;7.25;2.25;;;2.80;99.90;;;;;;5038104;28;20096;-68
2021/10/17 00:32:46;;;;;;;5.30;2.03;;;2.80;99.90;;;;;;5036998;28;20029;-68
2021/10/17 00:35:14;;;;;;;3.25;2.08;;;2.80;99.90;;;;;;5038493;28;20044;-68
2021/10/17 00:37:42;;;;;;;3.50;1.63;;;2.80;99.90;;;;;;5038184;28;20060;-68
2021/10/17 00:40:13;;;;;;;6.20;1.65;;;2.80;99.90;;;;;;5037855;28;20025;-68
2021/10/17 00:42:42;;;;;;;7.53;2.50;;;2.80;99.90;;;;;;5037038;28;20104;-68
2021/10/17 00:45:12;;;;;;;7.18;2.63;;;2.90;99.90;;;;;;5037471;28;20463;-68
2021/10/17 00:47:40;;;;;;;7.03;2.30;;;2.90;99.90;;;;;;5037117;28;20029;-68
2021/10/17 00:50:10;;;;;;;4.50;1.80;;;3.00;99.90;;;;;;5036807;28;20029;-68
2021/10/17 00:52:40;;;;;;;5.07;2.47;;;3.00;99.90;;;;;;5036837;28;20033;-68
2021/10/17 00:55:11;;;;;;;9.40;2.85;;;3.00;99.90;;;;;;5036816;28;20060;-68
2021/10/17 00:57:41;;;;;;;3.72;1.42;;;3.10;99.90;;;;;;5036963;28;20429;-68
2021/10/17 01:00:10;;;;;;;4.53;1.90;;;3.10;99.90;;;;;;5037002;28;20346;-68
2021/10/17 01:02:37;;;;;;;3.60;1.58;;;3.10;99.90;;;;;;5037062;28;20025;-68
2021/10/17 01:05:05;;;;;;;7.07;2.70;;;3.10;99.90;;;;;;5037750;28;20116;-68
2021/10/17 01:07:33;;;;;;;4.22;1.70;;;3.10;99.90;;;;;;5036722;28;20094;-68
2021/10/17 01:10:02;;;;;;;5.38;1.70;;;3.10;99.90;;;;;;5037529;28;20464;-68
2021/10/17 01:12:29;;;;;;;8.88;1.90;;;3.10;99.90;;;;;;5036467;28;20171;-68
2021/10/17 01:14:56;;;;;;;7.63;1.90;;;3.10;99.90;;;;;;5036416;28;20322;-68
2021/10/17 01:17:23;;;;;;;6.53;1.80;;;3.10;99.90;;;;;;5038162;28;20045;-68
2021/10/17 01:19:51;;;;;;;3.13;1.58;;;3.10;99.90;;;;;;5037541;28;20317;-68
2021/10/17 01:22:24;;;;;;;5.10;1.60;;;3.10;99.90;;;;;;5037402;28;20032;-68
2021/10/17 01:24:53;;;;;;;6.35;1.75;;;3.20;99.90;;;;;;5035381;28;20030;-68
2021/10/17 01:27:20;;;;;;;9.70;2.53;;;3.20;99.90;;;;;;5036538;28;20049;-68
2021/10/17 01:29:48;;;;;;;6.07;1.95;;;3.30;99.90;;;;;;5036368;28;20032;-68
2021/10/17 01:32:16;;;;;;;6.75;2.00;;;3.30;99.90;;;;;;5036333;28;20099;-68
2021/10/17 01:34:44;;;;;;;6.95;1.83;;;3.40;99.90;;;;;;5036242;28;20048;-68
2021/10/17 01:37:11;;;;;;;6.55;1.73;;;3.40;99.90;;;;;;5037040;28;20441;-68
2021/10/17 01:39:39;;;;;;;7.93;2.40;;;3.50;99.90;;;;;;5036871;28;20025;-68
2021/10/17 01:42:06;;;;;;;4.03;1.80;;;3.50;99.90;;;;;;5036271;28;20028;-68
2021/10/17 01:44:36;;;;;;;10.57;2.08;;;3.60;99.90;;;;;;5035293;28;20024;-68
2021/10/17 01:47:08;;;;;;;11.30;2.63;;;3.60;99.90;;;;;;5036954;28;20330;-68
2021/10/17 01:49:36;;;;;;;5.57;2.13;;;3.70;99.90;;;;;;5037544;28;20333;-68
2021/10/17 01:52:09;;;;;;;4.38;1.73;;;3.70;99.90;;;;;;5037566;28;20025;-68
2021/10/17 01:54:37;;;;;;;9.15;2.88;;;3.80;99.90;;;;;;5036008;28;20418;-68
2021/10/17 01:57:05;;;;;;;6.43;2.10;;;3.80;99.90;;;;;;5036060;28;20029;-68
2021/10/17 01:59:32;;;;;;;8.30;1.45;;;3.90;99.90;;;;;;5037578;28;20037;-68
2021/10/17 02:01:59;;;;;;;7.32;2.40;;;3.90;99.90;;;;;;5040491;28;20040;-68
2021/10/17 02:04:28;;;;;;;6.13;1.80;;;4.00;99.90;;;;;;5040905;28;20028;-69
2021/10/17 02:06:55;;;;;;;7.47;1.83;;;4.00;99.90;;;;;;5040276;28;20029;-68
2021/10/17 02:09:23;;;;;;;12.02;2.50;;;4.10;99.90;;;;;;5038992;28;20036;-68
2021/10/17 02:11:51;;;;;;;7.32;2.08;;;4.10;99.90;;;;;;5040288;28;20052;-68
2021/10/17 02:14:18;;;;;;;5.75;1.90;;;4.20;99.90;;;;;;5039797;28;20014;-68
2021/10/17 02:16:46;;;;;;;6.68;2.10;;;4.20;99.90;;;;;;5040306;28;20036;-68
2021/10/17 02:19:13;;;;;;;3.80;1.80;;;4.30;99.90;;;;;;5038732;28;20025;-68
2021/10/17 02:21:40;;;;;;;9.10;2.35;;;4.30;99.90;;;;;;5038588;28;20021;-68
2021/10/17 02:24:10;;;;;;;6.10;1.95;;;4.40;99.90;;;;;;5038532;28;20030;-68
2021/10/17 02:26:39;;;;;;;4.70;2.35;;;4.40;99.90;;;;;;5039811;28;20021;-68
2021/10/17 02:29:07;;;;;;;7.25;1.80;;;4.40;99.90;;;;;;5039284;28;20026;-68
2021/10/17 02:31:34;;;;;;;15.55;1.95;;;4.50;99.90;;;;;;5040322;28;20075;-68
2021/10/17 02:34:02;;;;;;;6.05;2.15;;;4.50;99.90;;;;;;5039306;28;20108;-68
2021/10/17 02:36:29;;;;;;;3.20;1.85;;;4.50;99.90;;;;;;5039240;28;20036;-68
2021/10/17 02:38:56;;;;;;;7.15;1.83;;;4.50;99.90;;;;;;5040234;28;20053;-68
2021/10/17 02:41:23;;;;;;;11.20;3.08;;;4.60;99.90;;;;;;5040713;28;20033;-68
2021/10/17 02:43:51;;;;;;;7.53;2.45;;;4.60;99.90;;;;;;5040677;28;20077;-68
2021/10/17 02:46:18;;;;;;;7.18;2.22;;;4.70;99.90;;;;;;5040110;28;20025;-68
2021/10/17 02:48:46;;;;;;;12.23;3.13;;;4.70;99.90;;;;;;5039789;28;20025;-68
2021/10/17 02:51:13;;;;;;;9.95;1.98;;;4.70;99.90;;;;;;5038978;28;20029;-68
2021/10/17 02:53:40;;;;;;;8.10;2.10;;;4.70;99.90;;;;;;5038187;28;20032;-68
2021/10/17 02:56:08;;;;;;;5.00;1.88;;;4.80;99.90;;;;;;5037928;28;20028;-68
2021/10/17 02:58:36;;;;;;;4.47;1.85;;;4.80;99.90;;;;;;5039747;28;20029;-68
2021/10/17 03:01:03;;;;;;;10.63;1.67;;;4.80;99.90;;;;;;5038951;28;20402;-68
2021/10/17 03:03:31;;;;;;;4.18;1.70;;;4.80;99.90;;;;;;5039221;28;20021;-68
2021/10/17 03:05:58;;;;;;;7.63;1.90;;;4.90;99.90;;;;;;5038601;28;20069;-68
2021/10/17 03:08:26;;;;;;;4.07;1.85;;;4.90;99.90;;;;;;5038994;28;20044;-68
2021/10/17 03:10:54;;;;;;;11.50;2.78;;;4.90;99.90;;;;;;5039643;28;20033;-68
2021/10/17 03:13:21;;;;;;;8.93;2.67;;;5.00;99.90;;;;;;5039939;28;20057;-68
2021/10/17 03:15:49;;;;;;;10.50;3.50;;;5.00;99.90;;;;;;5039596;28;20295;-68
2021/10/17 03:18:17;;;;;;;12.00;3.38;;;5.10;99.90;;;;;;5040200;28;20014;-68
2021/10/17 03:20:44;;;;;;;13.95;2.88;;;5.10;99.90;;;;;;5038609;28;20021;-68
2021/10/17 03:23:12;;;;;;;8.88;3.58;;;5.20;99.90;;;;;;5039703;28;20026;-68
2021/10/17 03:25:39;;;;;;;12.30;2.97;;;5.20;99.90;;;;;;5039402;28;20028;-68
2021/10/17 03:28:07;;;;;;;11.85;3.00;;;5.30;99.90;;;;;;5040016;28;20025;-68
2021/10/17 03:30:34;;;;;;;6.18;2.53;;;5.30;99.90;;;;;;5038413;28;20028;-68
2021/10/17 03:33:01;;;;;;;7.85;2.25;;;5.40;99.90;;;;;;5038818;28;20029;-68
2021/10/17 03:35:29;;;;;;;12.82;2.65;;;5.40;99.90;;;;;;5037162;28;20116;-68
2021/10/17 03:37:56;;;;;;;9.93;2.05;;;5.40;99.90;;;;;;5038438;28;20021;-68
2021/10/17 03:40:23;;;;;;;8.80;2.22;;;5.40;99.90;;;;;;5038177;28;20021;-68
2021/10/17 03:42:50;;;;;;;7.82;2.13;;;5.40;99.90;;;;;;5038191;28;20047;-68
2021/10/17 03:45:18;;;;;;;10.38;3.30;;;5.40;99.90;;;;;;5038618;28;20303;-68
2021/10/17 03:47:45;;;;;;;11.88;3.47;;;5.40;99.90;;;;;;5038228;28;20357;-68
2021/10/17 03:50:13;;;;;;;12.63;2.70;;;5.40;99.90;;;;;;5037963;28;20389;-68
2021/10/17 03:52:40;;;;;;;7.70;2.42;;;5.40;99.90;;;;;;5038841;28;20052;-68
2021/10/17 03:55:08;;;;;;;8.07;2.38;;;5.40;99.90;;;;;;5037727;28;20075;-68
2021/10/17 03:57:35;;;;;;;8.27;2.83;;;5.40;99.90;;;;;;5039323;28;20108;-68
2021/10/17 04:00:04;;;;;;;9.85;2.90;;;5.50;99.90;;;;;;5039213;28;20101;-68
2021/10/17 04:02:34;;;;;;;5.97;2.70;;;5.50;99.90;;;;;;5039225;28;20029;-68
2021/10/17 04:05:01;;;;;;;9.32;2.88;;;5.50;99.90;;;;;;5038739;28;20077;-68
2021/10/17 04:07:29;;;;;;;6.30;3.15;;;5.50;99.90;;;;;;5037982;28;20326;-68
2021/10/17 04:09:57;;;;;;;6.05;2.85;;;5.50;99.90;;;;;;5038551;28;20057;-68
2021/10/17 04:12:25;;;;;;;6.43;2.58;;;5.50;99.90;;;;;;5036497;28;20033;-68
2021/10/17 04:14:52;;;;;;;8.68;2.88;;;5.50;99.90;;;;;;5038057;28;20104;-68
2021/10/17 04:17:20;;;;;;;13.35;3.58;;;5.50;99.90;;;;;;5037619;28;20072;-68
2021/10/17 04:19:47;;;;;;;9.18;2.67;;;5.60;99.90;;;;;;5036324;28;20017;-68
2021/10/17 04:22:14;;;;;;;15.32;3.67;;;5.60;99.90;;;;;;5037937;28;20021;-68
2021/10/17 04:24:42;;;;;;;10.95;3.15;;;5.60;99.90;;;;;;5035803;28;20068;-68
2021/10/17 04:27:09;;;;;;;11.48;3.08;;;5.60;99.90;;;;;;5037730;28;20083;-68
2021/10/17 04:29:38;;;;;;;8.40;2.90;;;5.60;99.90;;;;;;5037284;28;20418;-68
2021/10/17 04:32:06;;;;;;;13.68;2.88;;;5.60;99.90;;;;;;5037709;28;20032;-68
2021/10/17 04:34:34;;;;;;;14.07;2.80;;;5.60;99.90;;;;;;5038124;28;20021;-68
2021/10/17 04:37:02;;;;;;;8.25;2.65;;;5.70;99.90;;;;;;5038451;28;20037;-68
2021/10/17 04:39:30;;;;;;;7.20;3.10;;;5.70;99.90;;;;;;5037315;28;20021;-68
2021/10/17 04:41:59;;;;;;;11.88;3.40;;;5.70;99.90;;;;;;5038046;28;20365;-68
2021/10/17 04:44:26;;;;;;;9.98;3.40;;;5.70;99.90;;;;;;5037157;28;20303;-68
2021/10/17 04:46:53;;;;;;;12.50;3.13;;;5.70;99.90;;;;;;5038075;28;20022;-68
2021/10/17 04:49:27;;;;;;;13.70;3.35;;;5.70;99.90;;;;;;5038297;28;20021;-68
2021/10/17 04:51:54;;;;;;;10.95;3.72;;;5.70;99.90;;;;;;5036745;28;20025;-68
2021/10/17 04:54:22;;;;;;;7.40;2.95;;;5.70;99.90;;;;;;5036998;28;20418;-68
2021/10/17 04:56:50;;;;;;;13.40;4.18;;;5.70;99.90;;;;;;5036964;28;20405;-68
2021/10/17 04:59:21;;;;;;;10.15;3.67;;;5.70;99.90;;;;;;5036737;28;20089;-68
2021/10/17 05:01:50;;;;;;;5.85;3.15;;;5.70;99.90;;;;;;5036741;28;20371;-68
2021/10/17 05:04:20;;;;;;;14.38;3.55;;;5.70;99.90;;;;;;5036623;28;20068;-68
2021/10/17 05:06:48;;;;;;;12.40;3.35;;;5.70;99.90;;;;;;5035777;28;20060;-68
2021/10/17 05:09:15;;;;;;;9.48;3.22;;;5.70;99.90;;;;;;5036643;28;20056;-68
2021/10/17 05:11:42;;;;;;;12.68;4.75;;;5.70;99.90;;;;;;5037096;28;20021;-68
2021/10/17 05:14:09;;;;;;;10.23;3.00;;;5.70;99.90;;;;;;5036560;28;20048;-68
2021/10/17 05:16:36;;;;;;;8.70;2.85;;;5.70;99.90;;;;;;5037761;28;20029;-68
2021/10/17 05:19:04;;;;;;;16.85;4.38;;;5.70;99.90;;;;;;5036281;28;20021;-68
2021/10/17 05:21:31;;;;;;;8.07;3.00;;;5.70;99.90;;;;;;5036305;28;20112;-68
2021/10/17 05:23:58;;;;;;;12.43;3.65;;;5.70;99.90;;;;;;5036513;28;20441;-68
2021/10/17 05:26:26;;;;;;;10.80;3.53;;;5.70;99.90;;;;;;5037851;28;20045;-68
2021/10/17 05:28:54;;;;;;;10.50;3.72;;;5.70;99.90;;;;;;5037328;28;20025;-68
2021/10/17 05:31:21;;;;;;;8.07;3.33;;;5.70;99.90;;;;;;5036121;28;20025;-68
2021/10/17 05:33:49;;;;;;;12.55;3.63;;;5.70;99.90;;;;;;5037886;28;20025;-69
2021/10/17 05:36:17;;;;;;;14.40;3.47;;;5.70;99.90;;;;;;5038509;28;20017;-68
2021/10/17 05:38:44;;;;;;;5.18;2.97;;;5.70;99.90;;;;;;5040493;28;20049;-69
2021/10/17 05:41:11;;;;;;;9.57;3.33;;;5.70;99.90;;;;;;5040389;28;20018;-69
2021/10/17 05:43:39;;;;;;;8.85;3.22;;;5.70;99.90;;;;;;5040823;28;20014;-68
2021/10/17 05:46:07;;;;;;;10.88;4.15;;;5.70;99.90;;;;;;5040597;28;20022;-69
2021/10/17 05:48:35;;;;;;;12.07;3.75;;;5.70;99.90;;;;;;5040306;28;20104;-68
2021/10/17 05:51:03;;;;;;;10.85;3.70;;;5.70;99.90;;;;;;5040202;28;20029;-69
2021/10/17 05:53:30;;;;;;;14.93;3.65;;;5.70;99.90;;;;;;5040279;28;20455;-68
2021/10/17 05:55:57;;;;;;;15.18;3.67;;;5.70;99.90;;;;;;5039073;28;20319;-69
2021/10/17 05:58:24;;;;;;;16.70;4.40;;;5.70;99.90;;;;;;5041066;28;20192;-72
2021/10/17 06:00:52;;;;;;;17.15;5.22;;;5.70;99.90;;;;;;5041576;28;20152;-72
2021/10/17 06:03:19;;;;;;;9.60;4.25;;;5.70;99.90;;;;;;5039913;28;20487;-72
2021/10/17 06:05:48;;;;;;;7.65;4.55;;;5.80;99.90;;;;;;5039544;28;20053;-73
2021/10/17 06:08:18;;;;;;;11.73;4.07;;;5.70;99.90;;;;;;5041043;28;20021;-73
2021/10/17 06:10:46;;;;;;;10.45;3.80;;;5.80;99.90;;;;;;5041104;28;20027;-73
2021/10/17 06:13:14;;;;;;;12.90;4.55;;;5.80;99.90;;;;;;5041073;28;20034;-73
2021/10/17 06:15:41;;;;;;;11.15;4.15;;;5.80;99.90;;;;;;5039638;28;20025;-72
2021/10/17 06:18:09;;;;;;;13.55;4.43;;;5.80;99.90;;;;;;5040372;28;20017;-72
2021/10/17 06:20:36;;;;;;;10.05;4.75;;;5.90;99.90;;;;;;5038552;28;20025;-71
2021/10/17 06:23:04;;;;;;;13.02;4.82;;;5.90;99.90;;;;;;5039801;28;20426;-71
2021/10/17 06:25:31;;;;;;;12.02;4.10;;;6.00;99.90;;;;;;5039597;28;20064;-71
2021/10/17 06:28:01;;;;;;;8.85;4.13;;;6.00;99.90;;;;;;5040082;28;20306;-70
2021/10/17 06:30:29;;;;;;;9.77;3.85;;;6.10;99.90;;;;;;5039359;28;20025;-71
2021/10/17 06:32:56;;;;;;;9.65;4.53;;;6.10;99.90;;;;;;5039885;28;20033;-69
2021/10/17 06:35:24;;;;;;;8.30;4.55;;;6.10;99.90;;;;;;5039375;28;20475;-69
2021/10/17 06:37:52;;;;;;;12.88;3.90;;;6.20;99.90;;;;;;5039381;28;20299;-70
2021/10/17 06:40:21;;;;;;;9.35;3.70;;;6.20;99.90;;;;;;5040441;28;20021;-69
2021/10/17 06:42:49;;;;;;;9.70;4.07;;;6.20;99.90;;;;;;5040755;28;20465;-69
2021/10/17 06:45:17;;;;;;;13.43;4.43;;;6.30;99.90;;;;;;5040651;28;20424;-70
2021/10/17 06:47:45;;;;;;;12.40;4.70;;;6.40;99.90;;;;;;5039742;28;20091;-68
2021/10/17 06:50:14;;;;;;;7.88;4.20;;;6.40;99.90;;;;;;5040044;28;20022;-70
2021/10/17 06:52:41;;;;;;;9.90;3.97;;;6.50;99.90;;;;;;5040054;28;20025;-70
2021/10/17 06:55:09;;;;;;;11.52;3.88;;;6.50;99.90;;;;;;5038933;28;20021;-70
2021/10/17 06:57:37;;;;;;;8.82;4.07;;;6.60;99.90;;;;;;5040920;28;20291;-70
2021/10/17 07:00:05;;;;;;;7.07;3.85;;;6.60;99.90;;;;;;5039193;28;20021;-67
2021/10/17 07:02:33;;;;;;;9.95;3.17;;;6.70;99.90;;;;;;5038985;28;20356;-67
2021/10/17 07:05:01;;;;;;;10.63;3.60;;;6.80;99.90;;;;;;5039055;28;20135;-66
2021/10/17 07:07:29;;;;;;;10.95;2.95;;;6.90;99.90;;;;;;5038930;28;20032;-66
2021/10/17 07:09:56;;;;;;;13.52;3.90;;;6.90;99.90;;;;;;5039305;28;20017;-66
2021/10/17 07:12:23;;;;;;;9.00;3.28;;;7.00;99.90;;;;;;5039270;28;20101;-66
2021/10/17 07:14:52;;;;;;;4.93;2.83;;;7.10;99.90;;;;;;5038690;28;20021;-67
2021/10/17 07:17:21;;;;;;;9.50;3.75;;;7.20;99.90;;;;;;5038958;28;20112;-67
2021/10/17 07:19:49;;;;;;;9.40;3.38;;;7.30;99.90;;;;;;5038390;28;20068;-66
2021/10/17 07:22:17;;;;;;;12.77;3.83;;;7.30;99.90;;;;;;5039729;28;20025;-67
2021/10/17 07:24:44;;;;;;;10.40;2.83;;;7.50;99.90;;;;;;5039504;28;20052;-66
2021/10/17 07:27:12;;;;;;;18.40;6.55;;;7.60;99.90;;;;;;5039445;28;20052;-66
2021/10/17 07:29:40;;;;;;;13.55;5.07;;;7.80;99.90;;;;;;5038382;28;20025;-66
2021/10/17 07:32:09;;;;;;;13.50;5.95;;;7.90;99.90;;;;;;5039327;28;20033;-67
2021/10/17 07:34:52;;;;;;;12.32;6.40;;;8.10;99.90;;;;;;5039352;28;20325;-66
2021/10/17 07:37:20;;;;;;;11.00;5.13;;;8.30;99.90;;;;;;5039363;28;20045;-67
2021/10/17 07:39:48;;;;;;;10.63;4.05;;;8.40;99.90;;;;;;5039688;28;20159;-67
2021/10/17 07:42:18;;;;;;;13.43;3.88;;;8.50;99.90;;;;;;5039164;28;20465;-67
2021/10/17 07:44:46;;;;;;;15.57;5.03;;;8.60;99.90;;;;;;5039111;28;20022;-67
2021/10/17 07:47:14;;;;;;;12.20;3.45;;;8.60;99.90;;;;;;5039661;28;20406;-67
2021/10/17 07:49:41;;;;;;;14.98;4.25;;;8.70;99.90;;;;;;5037861;28;20030;-67
2021/10/17 07:52:10;;;;;;;10.15;3.08;;;8.80;99.90;;;;;;5037742;28;20449;-67
2021/10/17 07:54:38;;;;;;;15.88;4.50;;;8.80;99.90;;;;;;5038170;28;20029;-67
2021/10/17 07:57:06;;;;;;;8.20;2.55;;;8.80;99.90;;;;;;5038972;28;20361;-67
2021/10/17 07:59:34;;;;;;;10.77;3.40;;;8.90;99.90;;;;;;5038436;28;20021;-67
2021/10/17 08:02:01;;;;;;;11.75;3.65;;;8.90;99.90;;;;;;5037635;28;20063;-67
2021/10/17 08:04:29;;;;;;;17.05;4.30;;;9.00;99.90;;;;;;5038982;28;20033;-67
2021/10/17 08:06:56;;;;;;;10.07;3.63;;;9.10;99.90;;;;;;5038843;28;20025;-67
2021/10/17 08:09:24;;;;;;;7.70;3.58;;;9.20;99.90;;;;;;5039068;28;20357;-67
2021/10/17 08:11:52;;;;;;;10.35;3.03;;;9.30;99.90;;;;;;5038451;28;20025;-67
2021/10/17 08:14:20;;;;;;;10.98;3.55;;;9.40;99.90;;;;;;5038690;28;20022;-67
2021/10/17 08:16:47;;;;;;;15.90;4.63;;;9.50;99.90;;;;;;5038559;28;20045;-67
2021/10/17 08:19:15;;;;;;;14.05;4.22;;;9.60;99.90;;;;;;5038256;28;20018;-67
2021/10/17 08:21:43;;;;;;;12.23;3.38;;;9.70;99.90;;;;;;5038392;28;20037;-67
2021/10/17 08:24:12;;;;;;;12.10;3.88;;;9.90;99.90;;;;;;5037192;28;20064;-66
2021/10/17 08:26:43;;;;;;;13.30;3.45;;;10.00;99.90;;;;;;5038315;28;20464;-67
2021/10/17 08:29:11;;;;;;;10.75;4.25;;;10.20;99.90;;;;;;5038454;28;20026;-66
2021/10/17 08:31:38;;;;;;;15.00;4.60;;;10.40;99.90;;;;;;5038116;28;20017;-66
2021/10/17 08:34:06;;;;;;;10.73;3.20;;;10.50;99.90;;;;;;5038046;28;20025;-66
2021/10/17 08:36:34;;;;;;;10.43;3.35;;;10.70;99.90;;;;;;5037383;28;20018;-67
2021/10/17 08:39:02;;;;;;;16.33;4.95;;;10.70;99.90;;;;;;5038044;28;20020;-67
2021/10/17 08:41:29;;;;;;;7.57;3.00;;;10.80;99.90;;;;;;5037124;28;20437;-67
2021/10/17 08:43:56;;;;;;;12.50;3.53;;;10.90;99.90;;;;;;5038257;28;20021;-67
2021/10/17 08:46:24;;;;;;;12.73;2.58;;;10.90;99.90;;;;;;5037882;28;20095;-66
2021/10/17 08:49:00;;;;;;;12.38;3.13;;;11.00;99.90;;;;;;5038387;28;20025;-66
2021/10/17 08:51:27;;;;;;;;;;;11.00;99.90;;;;;;5036978;28;20333;-66
2021/10/17 08:53:59;;;;;;;6.82;2.67;;;11.00;99.90;;;;;;5038282;28;19912;-65
2021/10/17 08:56:26;;;;;;;10.00;2.60;;;11.00;99.90;;;;;;5038014;28;20021;-66
2021/10/17 08:58:54;;;;;;;9.88;3.30;;;11.00;99.90;;;;;;5038510;28;20445;-66
2021/10/17 09:01:21;;;;;;;13.80;3.05;;;11.00;99.90;;;;;;5037918;28;20028;-66
2021/10/17 09:03:58;;;;;;;10.30;3.40;;;11.00;99.90;;;;;;5038401;28;20107;-66
2021/10/17 09:06:29;;;;;;;14.50;2.88;;;11.00;99.90;;;;;;5037263;28;20049;-66
2021/10/17 09:09:15;;;;;;;13.65;4.00;;;11.00;99.90;;;;;;5037559;28;20025;-66
2021/10/17 09:11:47;;;;;;;8.65;3.33;;;11.00;99.90;;;;;;5037561;28;20033;-67
2021/10/17 09:14:27;;;;;;;13.50;3.88;;;11.10;99.90;;;;;;5037977;28;20028;-67
2021/10/17 09:17:00;;;;;;;14.77;3.05;;;11.10;99.90;;;;;;5036777;28;20029;-66
2021/10/17 09:19:29;;;;;;;14.52;3.15;;;11.20;99.90;;;;;;5037348;28;20081;-68
2021/10/17 09:22:13;;;;;;;12.52;3.95;;;11.20;99.90;;;;;;5036521;28;20030;-66
2021/10/17 09:24:49;;;;;;;7.57;3.17;;;11.30;99.90;;;;;;5037315;28;20032;-68
2021/10/17 09:27:23;;;;;;;13.00;4.40;;;11.30;99.90;;;;;;5037367;28;20022;-66
2021/10/17 09:29:54;;;;;;;10.45;2.78;;;11.40;99.90;;;;;;5037227;28;20060;-66
2021/10/17 09:32:25;;;;;;;12.60;3.55;;;11.40;99.90;;;;;;5037217;28;20026;-66
2021/10/17 09:34:58;;;;;;;9.85;3.45;;;11.50;99.90;;;;;;5037226;28;20028;-65
2021/10/17 09:37:33;;;;;;;11.10;3.05;;;11.50;99.90;;;;;;5037793;28;20033;-65
2021/10/17 09:40:23;;;;;;;10.43;3.65;;;11.60;99.90;;;;;;5036176;28;20076;-67
2021/10/17 09:43:06;;;;;;;15.20;2.78;;;11.60;99.90;;;;;;5037640;28;20024;-69
2021/10/17 09:45:35;;;;;;;10.77;3.17;;;11.60;99.90;;;;;;5037053;28;20032;-69
2021/10/17 09:48:03;;;;;;;7.50;2.58;;;11.70;99.90;;;;;;5037147;28;20350;-69
2021/10/17 09:50:31;;;;;;;10.02;2.78;;;11.70;99.90;;;;;;5037008;28;20034;-69
2021/10/17 09:53:08;;;;;;;13.68;3.63;;;11.80;99.90;;;;;;5036159;28;20033;-69
2021/10/17 09:55:37;;;;;;;7.43;2.70;;;11.80;99.90;;;;;;5037677;28;20040;-67
2021/10/17 09:58:05;;;;;;;8.63;3.17;;;11.90;99.90;;;;;;5036756;28;20043;-67
2021/10/17 10:00:39;;;;;;;8.55;2.88;;;12.10;99.90;;;;;;5037194;28;20101;-67
2021/10/17 10:03:12;;;;;;;12.48;3.40;;;12.20;99.90;;;;;;5037468;28;20029;-67
2021/10/17 10:05:42;;;;;;;10.10;3.38;;;12.30;99.90;;;;;;5036749;28;20441;-69
2021/10/17 10:08:11;;;;;;;9.38;2.90;;;12.40;99.90;;;;;;5036867;28;20022;-68
2021/10/17 10:10:40;;;;;;;10.70;2.50;;;12.50;99.90;;;;;;5035872;28;20033;-68
2021/10/17 10:13:08;;;;;;;13.43;3.78;;;12.60;99.90;;;;;;5037073;28;20029;-67
2021/10/17 10:15:36;;;;;;;12.23;3.70;;;12.70;99.90;;;;;;5037088;28;20033;-67
2021/10/17 10:18:04;;;;;;;10.07;2.42;;;12.80;99.90;;;;;;5037098;28;20052;-67
2021/10/17 10:20:32;;;;;;;16.63;6.75;;;12.80;99.90;;;;;;5036791;28;20021;-67
2021/10/17 10:23:00;;;;;;;8.55;3.50;;;12.80;99.90;;;;;;5040275;28;20037;-66
2021/10/17 10:25:28;;;;;;;7.65;2.00;;;12.80;99.90;;;;;;5040587;28;20422;-68
2021/10/17 10:27:56;;;;;;;13.88;5.38;;;12.80;99.90;;;;;;5040657;28;20030;-66
2021/10/17 10:30:27;;;;;;;15.93;2.60;;;12.80;99.90;;;;;;5040426;28;20032;-67
2021/10/17 10:33:17;;;;;;;10.65;3.20;;;12.80;99.90;;;;;;5041175;28;20306;-68
2021/10/17 10:36:21;;;;;;;10.23;4.18;;;12.90;99.90;;;;;;5040459;28;20143;-67
2021/10/17 10:38:54;;;;;;;7.13;2.97;;;12.90;99.90;;;;;;4979567;28;20027;-67
2021/10/17 10:41:26;;;;;;;8.48;3.08;;;12.90;99.90;;;;;;5031178;28;20090;-67
2021/10/17 10:44:13;;;;;;;13.05;4.63;;;12.90;99.90;;;;;;5040202;28;20028;-68
2021/10/17 10:46:42;;;;;;;53.45;18.83;;;12.90;99.90;;;;;;5040317;28;20452;-68
2021/10/17 10:49:11;;;;;;;23.40;7.03;;;12.80;99.90;;;;;;5040081;28;20052;-67
2021/10/17 10:51:49;;;;;;;18.50;6.35;;;12.80;99.70;;;;;;5039994;28;20115;-68
2021/10/17 10:54:26;;;;;;;16.63;4.93;;;12.70;99.90;;;;;;5040009;28;20025;-68
2021/10/17 10:56:56;;;;;;;13.32;5.15;;;12.80;99.90;;;;;;5040676;28;20406;-67
2021/10/17 10:59:25;;;;;;;12.98;3.53;;;12.80;99.90;;;;;;5039838;28;20029;-68
2021/10/17 11:02:11;;;;;;;14.95;4.63;;;12.80;99.90;;;;;;5039917;28;20132;-67
2021/10/17 11:04:44;;;;;;;15.88;4.88;;;12.80;99.90;;;;;;5039995;28;20052;-67
2021/10/17 11:07:22;;;;;;;36.90;14.32;;;12.90;99.90;;;;;;5039889;28;20037;-68
2021/10/17 11:09:51;;;;;;;34.70;14.02;;;12.90;99.90;;;;;;5039785;28;20025;-68
2021/10/17 11:12:58;;;;;;;11.38;4.88;;;13.00;99.90;;;;;;5038600;28;20041;-68
2021/10/17 11:15:33;;;;;;;5.55;3.08;;;13.10;99.90;;;;;;4979076;28;20432;-67
2021/10/17 11:18:12;;;;;;;10.05;2.63;;;13.30;99.70;;;;;;5033658;28;20060;-67
2021/10/17 11:20:42;;;;;;;8.25;2.13;;;13.40;98.90;;;;;;5039137;28;20021;-68
2021/10/17 11:23:21;;;;;;;7.95;2.75;;;13.50;97.10;;;;;;5039690;28;20055;-67
2021/10/17 11:25:54;;;;;;;7.38;2.85;;;13.60;97.30;;;;;;5038370;28;20460;-67
2021/10/17 11:28:27;;;;;;;10.00;2.30;;;13.60;97.30;;;;;;5039367;28;20025;-67
2021/10/17 11:31:10;;;;;;;10.90;2.97;;;13.70;97.70;;;;;;5039679;28;20024;-67
2021/10/17 11:33:42;;;;;;;10.68;2.47;;;13.70;97.20;;;;;;5039507;28;20033;-67
2021/10/17 11:36:13;;;;;;;9.90;2.42;;;13.70;97.40;;;;;;5039163;28;20017;-66
2021/10/17 11:38:41;;;;;;;7.25;2.15;;;13.70;97.80;;;;;;5038154;28;20092;-67
2021/10/17 11:41:10;;;;;;;7.03;3.03;;;13.70;97.30;;;;;;5039160;28;20033;-67
2021/10/17 11:43:46;;;;;;;6.82;2.25;;;13.70;97.30;;;;;;5039385;28;20037;-67
2021/10/17 11:46:14;;;;;;;;;;;13.70;97.40;;;;;;5039626;28;20144;-66
2021/10/17 11:48:43;;;;;;;9.25;2.53;;;13.70;98.40;;;;;;5037946;28;19913;-67
2021/10/17 11:51:15;;;;;;;12.95;3.95;;;13.70;98.80;;;;;;5039140;28;20025;-67
2021/10/17 11:53:43;;;;;;;11.13;3.45;;;13.80;99.10;;;;;;5038894;28;20024;-67
2021/10/17 11:56:11;;;;;;;11.02;2.60;;;13.90;98.60;;;;;;5039065;28;20044;-67
2021/10/17 11:58:41;;;;;;;13.38;2.38;;;14.00;97.90;;;;;;5039072;28;20414;-68
2021/10/17 12:01:15;;;;;;;11.18;2.97;;;14.00;97.80;;;;;;5038631;28;20049;-68
2021/10/17 12:03:55;;;;;;;7.35;2.00;;;14.00;97.40;;;;;;5038164;28;20037;-69
2021/10/17 12:06:23;;;;;;;5.90;2.63;;;14.10;96.60;;;;;;5038584;28;20060;-68
2021/10/17 12:08:56;;;;;;;7.95;2.63;;;14.10;96.60;;;;;;5039176;28;20026;-67
2021/10/17 12:11:24;;;;;;;13.15;3.00;;;14.10;95.70;;;;;;5038531;28;20052;-67
2021/10/17 12:13:54;;;;;;;7.65;2.30;;;14.10;95.40;;;;;;5037456;28;20026;-67
2021/10/17 12:16:27;;;;;;;8.57;2.95;;;14.00;96.60;;;;;;5037585;28;20035;-68
2021/10/17 12:19:02;;;;;;;11.82;3.45;;;14.00;95.70;;;;;;5039006;28;20025;-68
2021/10/17 12:21:41;;;;;;;14.15;2.97;;;14.00;96.20;;;;;;5038440;28;20464;-68
2021/10/17 12:24:10;;;;;;;9.98;2.58;;;14.00;96.40;;;;;;5038525;28;20037;-67
2021/10/17 12:26:37;;;;;;;8.52;2.97;;;14.00;96.60;;;;;;5039029;28;20026;-66
2021/10/17 12:29:13;;;;;;;11.10;2.25;;;14.00;96.50;;;;;;5037127;28;20437;-66
2021/10/17 12:31:56;;;;;;;10.65;2.83;;;13.90;97.00;;;;;;5038686;28;20017;-66
2021/10/17 12:34:44;;;;;;;11.15;2.55;;;13.90;97.30;;;;;;5038635;28;20053;-66
2021/10/17 12:37:15;;;;;;;11.45;2.75;;;13.80;97.40;;;;;;5038354;28;20049;-66
2021/10/17 12:39:43;;;;;;;10.15;2.22;;;13.80;98.10;;;;;;5036933;28;20028;-65
2021/10/17 12:42:11;;;;;;;8.80;2.92;;;13.90;98.40;;;;;;5038556;28;20025;-66
2021/10/17 12:44:49;;;;;;;8.10;2.38;;;13.80;98.10;;;;;;5037650;28;20037;-66
2021/10/17 12:47:20;;;;;;;10.05;2.65;;;13.80;98.50;;;;;;5038000;28;20048;-66
2021/10/17 12:49:48;;;;;;;6.57;2.45;;;13.90;96.40;;;;;;5037697;28;20045;-66
2021/10/17 12:52:33;;;;;;;6.07;2.25;;;13.90;95.80;;;;;;5038430;28;20109;-66
2021/10/17 12:55:01;;;;;;;5.10;2.28;;;13.90;96.60;;;;;;5038319;28;20313;-65
2021/10/17 12:57:29;;;;;;;7.40;2.10;;;13.80;97.10;;;;;;5038251;28;20029;-65
2021/10/17 12:59:58;;;;;;;10.02;3.05;;;13.80;97.00;;;;;;5037641;28;20025;-65